Time;durP1;ratioP1;P1;durP2;ratioP2;P2;SDS_P1;SDS_P2;PMS_P1;PMS_P2;Temp;Humidity;BMP_temperature;BMP_pressure;BME280_temperature;BME280_humidity;BME280_pressure;Samples;Min_cycle;Max_cycle;Signal;HPM_P1;HPM_P2
2023/12/11 00:00:29;;;;;;;28.88;2.80;;;10.20;99.90;;;;;;5009560;28;20038;-91
2023/12/11 00:02:55;;;;;;;37.60;3.75;;;10.20;99.90;;;;;;5010725;28;20029;-90
2023/12/11 00:05:21;;;;;;;40.42;4.32;;;10.10;99.90;;;;;;5005328;28;20061;-89
2023/12/11 00:07:46;;;;;;;41.33;4.50;;;10.10;99.90;;;;;;5010746;28;20034;-89
2023/12/11 00:10:12;;;;;;;25.23;2.83;;;10.00;99.90;;;;;;5005897;28;20061;-91
2023/12/11 00:12:38;;;;;;;44.42;4.05;;;10.00;99.90;;;;;;5011088;28;20037;-90
2023/12/11 00:15:04;;;;;;;31.13;4.30;;;10.00;99.90;;;;;;5003550;28;20092;-90
2023/12/11 00:17:29;;;;;;;29.48;3.47;;;10.00;99.90;;;;;;5008872;28;20029;-91
2023/12/11 00:19:55;;;;;;;30.23;4.28;;;10.00;99.90;;;;;;4996826;28;20372;-90
2023/12/11 00:22:21;;;;;;;37.08;4.65;;;10.00;99.90;;;;;;5010527;28;20099;-90
2023/12/11 00:24:46;;;;;;;34.42;4.00;;;9.90;99.90;;;;;;5009774;28;20040;-89
2023/12/11 00:27:12;;;;;;;29.90;3.60;;;9.90;99.90;;;;;;5006190;28;20034;-91
2023/12/11 00:29:38;;;;;;;35.53;4.43;;;9.90;99.90;;;;;;5008793;28;20115;-90
2023/12/11 00:32:05;;;;;;;41.38;5.22;;;9.90;99.90;;;;;;5009271;28;20021;-90
2023/12/11 00:34:32;;;;;;;35.75;4.60;;;9.90;99.90;;;;;;5013080;28;20125;-91
2023/12/11 00:36:58;;;;;;;39.75;4.57;;;9.90;99.90;;;;;;5024436;28;21501;-91
2023/12/11 00:39:24;;;;;;;31.98;4.50;;;9.90;99.90;;;;;;5012986;28;20030;-91
2023/12/11 00:41:50;;;;;;;40.60;5.38;;;9.80;99.90;;;;;;5015179;28;20045;-91
2023/12/11 00:44:15;;;;;;;37.35;4.03;;;9.90;99.90;;;;;;5014670;28;20026;-90
2023/12/11 00:46:41;;;;;;;38.00;4.15;;;9.80;99.90;;;;;;5012699;28;20028;-90
2023/12/11 00:49:07;;;;;;;32.83;4.22;;;9.70;99.90;;;;;;5013130;28;20029;-90
2023/12/11 00:51:33;;;;;;;38.28;4.57;;;9.70;99.90;;;;;;5012888;28;20018;-91
2023/12/11 00:53:58;;;;;;;26.92;3.38;;;9.70;99.90;;;;;;5012067;28;20042;-91
2023/12/11 00:56:24;;;;;;;44.15;4.70;;;9.70;99.90;;;;;;5011156;28;20528;-91
2023/12/11 00:58:50;;;;;;;33.08;4.63;;;9.70;99.90;;;;;;5013177;28;20038;-90
2023/12/11 01:01:15;;;;;;;38.58;4.10;;;9.70;99.90;;;;;;5013254;28;20021;-90
2023/12/11 01:03:41;;;;;;;40.72;3.75;;;9.60;99.90;;;;;;5007899;28;20125;-91
2023/12/11 01:06:07;;;;;;;41.50;4.78;;;9.60;99.90;;;;;;5013867;28;20136;-89
2023/12/11 01:08:38;;;;;;;31.02;3.83;;;9.60;99.90;;;;;;5013086;28;20029;-91
2023/12/11 01:11:03;;;;;;;39.83;5.72;;;9.50;99.90;;;;;;5013898;28;20033;-90
2023/12/11 01:13:29;;;;;;;30.95;3.03;;;9.50;99.90;;;;;;5013308;28;20057;-91
2023/12/11 01:15:55;;;;;;;41.13;5.30;;;9.50;99.90;;;;;;5014223;28;20478;-90
2023/12/11 01:18:20;;;;;;;39.70;4.22;;;9.50;99.90;;;;;;5013524;28;20109;-91
2023/12/11 01:20:46;;;;;;;33.33;3.40;;;9.50;99.90;;;;;;5015565;28;20474;-91
2023/12/11 01:23:11;;;;;;;33.78;3.55;;;9.50;99.90;;;;;;5011805;28;20052;-91
2023/12/11 01:25:37;;;;;;;36.83;4.38;;;9.50;99.90;;;;;;5010437;28;20029;-90
2023/12/11 01:28:02;;;;;;;46.63;4.30;;;9.50;99.90;;;;;;5012840;28;20034;-90
2023/12/11 01:30:28;;;;;;;34.53;3.85;;;9.50;99.90;;;;;;5001314;28;20109;-90
2023/12/11 01:32:54;;;;;;;29.58;3.45;;;9.50;99.90;;;;;;5010265;28;20032;-91
2023/12/11 01:35:19;;;;;;;31.08;4.05;;;9.50;99.90;;;;;;5007607;28;20038;-90
2023/12/11 01:37:45;;;;;;;32.15;3.88;;;9.50;99.90;;;;;;5013144;28;20474;-90
2023/12/11 01:40:11;;;;;;;38.03;4.15;;;9.50;99.90;;;;;;5028637;28;20026;-90
2023/12/11 01:42:37;;;;;;;33.97;5.07;;;9.50;99.90;;;;;;5019624;28;20508;-90
2023/12/11 01:45:03;;;;;;;39.38;4.32;;;9.60;99.90;;;;;;5008916;28;20105;-90
2023/12/11 01:47:28;;;;;;;30.35;4.00;;;9.60;99.90;;;;;;5004869;28;20065;-91
2023/12/11 01:49:54;;;;;;;28.52;3.40;;;9.60;99.90;;;;;;5026190;28;20050;-91
2023/12/11 01:52:19;;;;;;;34.20;3.65;;;9.60;99.90;;;;;;5018102;28;20037;-90
2023/12/11 01:54:45;;;;;;;29.13;3.67;;;9.60;99.90;;;;;;5011988;28;20112;-90
2023/12/11 01:57:11;;;;;;;28.88;2.90;;;9.60;99.90;;;;;;5012886;28;20034;-90
2023/12/11 01:59:38;;;;;;;26.27;4.05;;;9.60;99.90;;;;;;5013058;28;20441;-91
2023/12/11 02:02:04;;;;;;;27.48;2.92;;;9.70;99.90;;;;;;4997092;28;20509;-90
2023/12/11 02:04:30;;;;;;;38.97;5.07;;;9.60;99.90;;;;;;5002597;28;20076;-91
2023/12/11 02:06:57;;;;;;;39.10;3.85;;;9.70;99.90;;;;;;5011474;28;20521;-91
2023/12/11 02:09:22;;;;;;;33.88;3.63;;;9.80;99.90;;;;;;5012933;28;20030;-92
2023/12/11 02:11:48;;;;;;;41.83;4.55;;;9.90;99.90;;;;;;5013090;28;20394;-91
2023/12/11 02:14:14;;;;;;;36.85;4.03;;;9.90;99.90;;;;;;5012358;28;20123;-90
2023/12/11 02:16:39;;;;;;;28.00;2.70;;;10.00;99.90;;;;;;5013179;28;20088;-90
2023/12/11 02:19:05;;;;;;;26.67;3.97;;;10.00;99.90;;;;;;5004283;28;20038;-91
2023/12/11 02:21:31;;;;;;;33.17;4.38;;;10.10;99.90;;;;;;5011531;28;20061;-90
2023/12/11 02:24:23;;;;;;;32.22;3.72;;;10.10;99.90;;;;;;5012462;28;20100;-90
2023/12/11 02:26:48;;;;;;;33.65;4.15;;;10.10;99.90;;;;;;5012121;28;20589;-90
2023/12/11 02:29:14;;;;;;;28.60;3.17;;;10.20;99.90;;;;;;5011667;28;20038;-90
2023/12/11 02:31:40;;;;;;;30.85;2.92;;;10.20;99.90;;;;;;5012715;28;20025;-91
2023/12/11 02:34:07;;;;;;;30.83;3.80;;;10.20;99.90;;;;;;5010851;28;20038;-90
2023/12/11 02:36:33;;;;;;;34.05;4.28;;;10.20;99.90;;;;;;5012798;28;20084;-91
2023/12/11 02:38:58;;;;;;;36.83;4.15;;;10.20;99.90;;;;;;5007446;28;20422;-91
2023/12/11 02:41:25;;;;;;;32.28;4.22;;;10.20;99.90;;;;;;5007617;28;20018;-90
2023/12/11 02:43:50;;;;;;;34.00;3.90;;;10.20;99.90;;;;;;5010167;28;20033;-90
2023/12/11 02:46:16;;;;;;;20.83;3.42;;;10.20;99.90;;;;;;5011676;28;20030;-90
2023/12/11 02:48:41;;;;;;;34.47;4.32;;;10.20;99.90;;;;;;5003859;28;20026;-90
2023/12/11 02:51:07;;;;;;;24.83;2.65;;;10.20;99.90;;;;;;5014618;28;20030;-91
2023/12/11 02:53:33;;;;;;;23.98;2.92;;;10.20;99.90;;;;;;5026747;28;20098;-90
2023/12/11 02:55:58;;;;;;;36.22;3.80;;;10.20;99.90;;;;;;5006932;28;20034;-91
2023/12/11 02:58:24;;;;;;;38.10;3.35;;;10.20;99.90;;;;;;5005264;28;20035;-91
2023/12/11 03:00:49;;;;;;;38.97;4.03;;;10.20;99.90;;;;;;5006511;28;20132;-90
2023/12/11 03:03:15;;;;;;;37.33;4.05;;;10.20;99.90;;;;;;5011284;28;20037;-90
2023/12/11 03:05:41;;;;;;;25.77;3.58;;;10.20;99.90;;;;;;5001082;28;20042;-90
2023/12/11 03:08:06;;;;;;;27.58;3.33;;;10.30;99.90;;;;;;5010529;28;20029;-90
2023/12/11 03:10:33;;;;;;;35.47;3.30;;;10.30;99.90;;;;;;5011112;28;20032;-91
2023/12/11 03:12:58;;;;;;;34.08;3.72;;;10.40;99.90;;;;;;5006145;28;20386;-90
2023/12/11 03:15:24;;;;;;;32.20;3.63;;;10.40;99.90;;;;;;5005438;28;20106;-90
2023/12/11 03:17:50;;;;;;;29.50;2.95;;;10.40;99.90;;;;;;5009198;28;20084;-90
2023/12/11 03:20:15;;;;;;;31.58;2.58;;;10.40;99.90;;;;;;5011131;28;20030;-90
2023/12/11 03:22:41;;;;;;;29.95;2.92;;;10.30;99.90;;;;;;5008178;28;20057;-89
2023/12/11 03:25:07;;;;;;;32.35;3.10;;;10.20;99.90;;;;;;5005858;28;20034;-87
2023/12/11 03:27:33;;;;;;;33.97;3.78;;;10.20;99.90;;;;;;5009580;28;20026;-89
2023/12/11 03:29:59;;;;;;;35.00;3.95;;;10.10;99.90;;;;;;5008867;28;20490;-88
2023/12/11 03:32:24;;;;;;;35.47;3.03;;;10.10;99.90;;;;;;5003672;28;20040;-89
2023/12/11 03:34:50;;;;;;;31.60;3.60;;;10.00;99.90;;;;;;4997288;28;20042;-88
2023/12/11 03:37:16;;;;;;;38.00;5.20;;;9.90;99.90;;;;;;4999468;28;20386;-87
2023/12/11 03:39:41;;;;;;;29.05;3.53;;;9.90;99.90;;;;;;5011408;28;20033;-88
2023/12/11 03:42:07;;;;;;;22.10;3.03;;;9.80;99.90;;;;;;5011717;28;20026;-88
2023/12/11 03:44:33;;;;;;;34.95;3.97;;;9.80;99.90;;;;;;5010388;28;20876;-88
2023/12/11 03:46:58;;;;;;;34.13;3.55;;;9.80;99.90;;;;;;5011635;28;20018;-89
2023/12/11 03:49:24;;;;;;;38.30;3.08;;;9.80;99.90;;;;;;5010088;28;20061;-89
2023/12/11 03:51:50;;;;;;;33.08;3.67;;;9.80;99.90;;;;;;5011324;28;20497;-89
2023/12/11 03:54:16;;;;;;;26.45;2.42;;;9.90;99.90;;;;;;5012416;28;20155;-88
2023/12/11 03:56:42;;;;;;;26.45;2.72;;;9.90;99.90;;;;;;5013456;28;20541;-89
2023/12/11 03:59:08;;;;;;;29.38;2.88;;;10.00;99.90;;;;;;5010638;28;20490;-89
2023/12/11 04:01:34;;;;;;;29.52;3.08;;;10.00;99.90;;;;;;5011868;28;20462;-89
2023/12/11 04:04:00;;;;;;;35.97;3.65;;;10.00;99.90;;;;;;5008003;28;20048;-89
2023/12/11 04:06:26;;;;;;;31.10;2.90;;;10.00;99.90;;;;;;5010610;28;20486;-89
2023/12/11 04:08:51;;;;;;;28.58;2.95;;;10.00;99.90;;;;;;5015744;28;20029;-89
2023/12/11 04:11:17;;;;;;;31.15;2.83;;;10.10;99.90;;;;;;5014180;28;20026;-89
2023/12/11 04:13:43;;;;;;;30.92;2.85;;;10.00;99.90;;;;;;5011070;28;20088;-89
2023/12/11 04:16:09;;;;;;;31.00;3.80;;;9.90;99.90;;;;;;5014933;28;20493;-88
2023/12/11 04:18:36;;;;;;;29.88;2.90;;;9.90;99.90;;;;;;5015305;28;20026;-89
2023/12/11 04:21:01;;;;;;;33.30;3.63;;;9.90;99.90;;;;;;5015014;28;20034;-88
2023/12/11 04:23:27;;;;;;;29.42;3.08;;;9.90;99.90;;;;;;5013269;28;20087;-88
2023/12/11 04:25:54;;;;;;;33.55;2.92;;;10.00;99.90;;;;;;5009714;28;20030;-89
2023/12/11 04:28:21;;;;;;;29.25;2.97;;;10.00;99.90;;;;;;5010968;28;20026;-89
2023/12/11 04:30:46;;;;;;;34.15;3.40;;;10.00;99.90;;;;;;5014392;28;20030;-89
2023/12/11 04:33:12;;;;;;;24.73;2.95;;;10.10;99.90;;;;;;5006927;28;20053;-90
2023/12/11 04:35:38;;;;;;;26.13;3.33;;;10.00;99.90;;;;;;5013815;28;20057;-90
2023/12/11 04:38:03;;;;;;;37.83;4.50;;;10.00;99.90;;;;;;5007907;28;20023;-90
2023/12/11 04:40:29;;;;;;;28.15;2.97;;;10.00;99.90;;;;;;5013990;28;20037;-88
2023/12/11 04:42:55;;;;;;;29.30;2.90;;;10.00;99.90;;;;;;5006006;28;20022;-89
2023/12/11 04:45:21;;;;;;;28.15;3.10;;;10.10;99.90;;;;;;5010606;28;20045;-89
2023/12/11 04:47:46;;;;;;;26.85;2.63;;;10.10;99.90;;;;;;5006061;28;20026;-90
2023/12/11 04:50:12;;;;;;;27.58;3.78;;;10.10;99.90;;;;;;5001443;28;20035;-89
2023/12/11 04:52:37;;;;;;;30.75;2.60;;;10.20;99.90;;;;;;5011656;28;20029;-90
2023/12/11 04:55:03;;;;;;;25.73;2.95;;;10.20;99.90;;;;;;5015697;28;20042;-89
2023/12/11 04:57:29;;;;;;;30.80;3.72;;;10.20;99.90;;;;;;5015522;28;20030;-90
2023/12/11 04:59:54;;;;;;;22.15;4.10;;;10.20;99.90;;;;;;5021128;28;20076;-89
2023/12/11 05:02:20;;;;;;;20.63;2.97;;;10.20;99.90;;;;;;5005322;28;20050;-90
2023/12/11 05:04:46;;;;;;;28.40;3.13;;;10.20;99.90;;;;;;5011509;28;20092;-89
2023/12/11 05:07:11;;;;;;;30.38;3.55;;;10.20;99.90;;;;;;5012711;28;20046;-89
2023/12/11 05:09:37;;;;;;;27.58;3.08;;;10.20;99.90;;;;;;5014544;28;20030;-90
2023/12/11 05:12:03;;;;;;;28.17;3.33;;;10.20;99.90;;;;;;5013423;28;20030;-90
2023/12/11 05:14:28;;;;;;;28.30;3.45;;;10.20;99.90;;;;;;4998890;28;20038;-91
2023/12/11 05:16:54;;;;;;;26.23;3.05;;;10.20;99.90;;;;;;5002442;28;20037;-91
2023/12/11 05:19:20;;;;;;;28.60;2.95;;;10.20;99.90;;;;;;5010642;28;20068;-91
2023/12/11 05:21:45;;;;;;;30.77;2.42;;;10.30;99.90;;;;;;5012824;28;20032;-90
2023/12/11 05:24:11;;;;;;;37.17;3.70;;;10.30;99.90;;;;;;5011640;28;20038;-90
2023/12/11 05:26:37;;;;;;;24.63;3.00;;;10.30;99.90;;;;;;5012220;28;20112;-90
2023/12/11 05:29:04;;;;;;;26.23;3.00;;;10.30;99.90;;;;;;5013855;28;20030;-89
2023/12/11 05:31:33;;;;;;;27.30;2.47;;;10.30;99.90;;;;;;5014211;28;20030;-90
2023/12/11 05:33:58;;;;;;;22.60;2.22;;;10.30;99.90;;;;;;5012848;28;20033;-90
2023/12/11 05:36:24;;;;;;;26.27;2.63;;;10.30;99.90;;;;;;5013269;28;20034;-90
2023/12/11 05:38:50;;;;;;;32.03;2.28;;;10.40;99.90;;;;;;5012896;28;20041;-91
2023/12/11 05:41:16;;;;;;;45.30;4.43;;;10.40;99.90;;;;;;5011665;28;20033;-90
2023/12/11 05:43:42;;;;;;;28.30;2.40;;;10.40;99.90;;;;;;5012482;28;20088;-91
2023/12/11 05:46:08;;;;;;;31.52;3.50;;;10.40;99.90;;;;;;5010958;28;20022;-90
2023/12/11 05:48:34;;;;;;;29.10;2.72;;;10.40;99.90;;;;;;5010302;28;20026;-91
2023/12/11 05:50:59;;;;;;;23.50;2.40;;;10.40;99.90;;;;;;5012750;28;20037;-91
2023/12/11 05:53:25;;;;;;;26.05;3.28;;;10.40;99.90;;;;;;5013187;28;20040;-91
2023/12/11 05:55:51;;;;;;;28.48;2.45;;;10.40;99.90;;;;;;5012292;28;20038;-91
2023/12/11 05:58:16;;;;;;;26.88;3.15;;;10.30;99.90;;;;;;5013251;28;20029;-91
2023/12/11 06:00:42;;;;;;;26.33;2.70;;;10.40;99.90;;;;;;5009756;28;20087;-90
2023/12/11 06:03:07;;;;;;;30.40;2.88;;;10.30;99.90;;;;;;5006786;28;20027;-91
2023/12/11 06:05:33;;;;;;;20.88;2.28;;;10.30;99.90;;;;;;5009831;28;20025;-91
2023/12/11 06:07:59;;;;;;;37.03;3.75;;;10.30;99.90;;;;;;5011960;28;20033;-91
2023/12/11 06:10:24;;;;;;;27.25;3.15;;;10.30;99.90;;;;;;5004880;28;20037;-90
2023/12/11 06:12:50;;;;;;;28.38;3.20;;;10.30;99.90;;;;;;5007386;28;20030;-90
2023/12/11 06:15:17;;;;;;;25.42;2.50;;;10.30;99.90;;;;;;4995861;28;20049;-90
2023/12/11 06:17:42;;;;;;;28.75;3.22;;;10.30;99.90;;;;;;5013613;28;20022;-90
2023/12/11 06:20:09;;;;;;;24.15;2.40;;;10.30;99.90;;;;;;5013290;28;20028;-92
2023/12/11 06:22:35;;;;;;;25.33;2.08;;;10.20;99.90;;;;;;5009159;28;20034;-91
2023/12/11 06:25:01;;;;;;;27.65;2.80;;;10.20;99.90;;;;;;5011723;28;20022;-92
2023/12/11 06:27:27;;;;;;;29.45;2.45;;;10.20;99.90;;;;;;5016025;28;20100;-91
2023/12/11 06:29:53;;;;;;;23.30;2.40;;;10.20;99.90;;;;;;5001359;28;20121;-91
2023/12/11 06:32:19;;;;;;;19.33;2.17;;;10.30;99.90;;;;;;5012389;28;20255;-91
2023/12/11 06:34:45;;;;;;;20.80;2.63;;;10.20;99.90;;;;;;5010881;28;20133;-91
2023/12/11 06:37:10;;;;;;;20.13;2.20;;;10.30;99.90;;;;;;5014726;28;20030;-92
2023/12/11 06:39:36;;;;;;;19.15;2.15;;;10.20;99.90;;;;;;5013393;28;20040;-92
2023/12/11 06:42:02;;;;;;;20.08;2.90;;;10.20;99.90;;;;;;5012602;28;20022;-92
2023/12/11 06:44:28;;;;;;;21.90;2.38;;;10.30;99.90;;;;;;5029547;28;20022;-92
2023/12/11 06:46:53;;;;;;;24.70;2.22;;;10.30;99.90;;;;;;5010663;28;20849;-92
2023/12/11 06:49:19;;;;;;;20.10;1.70;;;10.30;99.90;;;;;;4999413;28;20034;-92
2023/12/11 06:51:45;;;;;;;22.98;3.22;;;10.30;99.90;;;;;;5010079;28;20050;-92
2023/12/11 06:54:11;;;;;;;26.10;1.95;;;10.30;99.90;;;;;;5009123;28;20072;-91
2023/12/11 06:56:37;;;;;;;14.63;1.42;;;10.30;99.90;;;;;;5009383;28;20023;-92
2023/12/11 06:59:03;;;;;;;22.83;2.65;;;10.30;99.90;;;;;;5010869;28;20026;-92
2023/12/11 07:01:29;;;;;;;17.88;2.63;;;10.30;99.90;;;;;;5013399;28;20018;-90
2023/12/11 07:03:55;;;;;;;21.40;1.63;;;10.30;99.90;;;;;;5011885;28;20064;-90
2023/12/11 07:06:21;;;;;;;25.02;2.40;;;10.20;99.90;;;;;;5020742;28;20131;-93
2023/12/11 07:08:46;;;;;;;19.35;1.98;;;10.10;99.90;;;;;;5009315;28;20030;-92
2023/12/11 07:11:12;;;;;;;20.17;3.05;;;10.10;99.90;;;;;;4996343;28;20026;-91
2023/12/11 07:13:41;;;;;;;25.98;1.80;;;10.00;99.90;;;;;;5008237;28;20027;-92
2023/12/11 07:16:07;;;;;;;29.02;2.40;;;10.00;99.90;;;;;;5016661;28;20026;-92
2023/12/11 07:18:33;;;;;;;19.20;2.10;;;10.10;99.90;;;;;;5005122;28;20026;-91
2023/12/11 07:20:58;;;;;;;24.95;1.77;;;10.10;99.90;;;;;;5009082;28;20029;-92
2023/12/11 07:23:24;;;;;;;24.83;2.55;;;10.10;99.90;;;;;;5011538;28;20533;-93
2023/12/11 07:25:50;;;;;;;23.60;2.25;;;10.10;99.90;;;;;;5014263;28;20092;-93
2023/12/11 07:28:16;;;;;;;21.05;1.92;;;10.10;99.90;;;;;;5014050;28;20030;-92
2023/12/11 07:30:41;;;;;;;23.52;2.53;;;10.20;99.90;;;;;;5012822;28;20057;-92
2023/12/11 07:33:08;;;;;;;17.88;1.50;;;10.20;99.90;;;;;;5008777;28;20048;-89
2023/12/11 07:35:35;;;;;;;15.43;1.75;;;10.20;99.90;;;;;;5009945;28;20072;-91
2023/12/11 07:38:02;;;;;;;24.48;2.72;;;10.30;99.90;;;;;;5006642;28;20026;-89
2023/12/11 07:40:28;;;;;;;17.77;1.58;;;10.30;99.90;;;;;;5010727;28;20026;-92
2023/12/11 07:42:54;;;;;;;21.52;1.73;;;10.30;99.90;;;;;;5010145;28;20037;-92
2023/12/11 07:45:20;;;;;;;20.00;1.40;;;10.40;99.90;;;;;;5012621;28;20033;-91
2023/12/11 07:47:46;;;;;;;22.42;1.45;;;10.40;99.90;;;;;;5007855;28;20041;-92
2023/12/11 07:50:12;;;;;;;16.05;1.55;;;10.30;99.90;;;;;;5007060;28;20911;-92
2023/12/11 07:52:37;;;;;;;17.15;1.40;;;10.30;99.90;;;;;;5024089;28;20930;-92
2023/12/11 07:55:04;;;;;;;17.10;1.67;;;10.20;99.90;;;;;;4999479;28;20161;-91
2023/12/11 07:57:30;;;;;;;19.58;1.38;;;10.10;99.90;;;;;;5019954;28;20125;-91
2023/12/11 07:59:55;;;;;;;18.17;1.95;;;10.10;99.90;;;;;;5007121;28;23975;-92
2023/12/11 08:02:21;;;;;;;19.80;2.40;;;10.10;99.90;;;;;;5001187;28;20121;-91
2023/12/11 08:04:46;;;;;;;14.80;1.70;;;10.10;99.90;;;;;;5006810;28;20482;-91
2023/12/11 08:07:16;;;;;;;17.88;1.30;;;10.10;99.90;;;;;;5009503;28;20050;-92
2023/12/11 08:09:42;;;;;;;11.50;0.85;;;10.10;99.90;;;;;;5010983;28;20073;-91
2023/12/11 08:12:08;;;;;;;11.63;0.85;;;10.10;99.90;;;;;;4998447;28;20022;-92
2023/12/11 08:14:34;;;;;;;12.05;1.42;;;10.10;99.90;;;;;;5001311;28;20045;-91
2023/12/11 08:45:29;;;;;;;10.65;0.90;;;10.30;99.90;;;;;;5159826;22;20054;-91
2023/12/11 08:47:54;;;;;;;7.60;0.90;;;10.30;99.90;;;;;;4984334;28;20026;-91
2023/12/11 08:50:20;;;;;;;13.35;1.58;;;10.30;99.90;;;;;;5006676;28;20076;-90
2023/12/11 08:52:46;;;;;;;13.48;1.15;;;10.30;99.90;;;;;;4996648;28;20038;-92
2023/12/11 08:55:12;;;;;;;17.83;1.70;;;10.30;99.90;;;;;;4992256;28;20370;-92
2023/12/11 08:57:37;;;;;;;13.52;1.20;;;10.30;99.90;;;;;;4986651;28;20053;-93
2023/12/11 09:00:05;;;;;;;15.10;1.65;;;10.30;99.90;;;;;;5000197;28;20557;-92
2023/12/11 09:02:31;;;;;;;14.10;1.08;;;10.20;99.90;;;;;;5005915;28;20516;-91
2023/12/11 09:04:57;;;;;;;16.80;1.08;;;10.10;99.90;;;;;;5003584;28;20033;-92
2023/12/11 09:07:22;;;;;;;11.80;0.93;;;10.00;99.90;;;;;;4987007;28;20034;-90
2023/12/11 09:09:49;;;;;;;14.73;1.85;;;9.90;99.90;;;;;;4988556;28;20096;-90
2023/12/11 09:12:15;;;;;;;13.82;0.82;;;9.80;99.90;;;;;;4997021;28;20030;-91
2023/12/11 09:14:41;;;;;;;13.63;1.55;;;9.70;99.90;;;;;;4997275;28;20038;-92
2023/12/11 09:17:06;;;;;;;14.30;1.10;;;9.60;99.90;;;;;;5008687;28;20022;-90
2023/12/11 09:19:32;;;;;;;14.25;1.27;;;9.50;99.90;;;;;;4997070;28;20034;-92
2023/12/11 09:21:58;;;;;;;11.35;0.98;;;9.30;99.90;;;;;;4990669;28;20022;-93
2023/12/11 09:26:59;;;;;;;15.02;1.92;;;9.10;99.90;;;;;;5290790;23;20061;-92
2023/12/11 09:29:25;;;;;;;19.23;1.35;;;9.00;99.90;;;;;;5005696;28;20512;-92
2023/12/11 09:31:51;;;;;;;18.85;1.42;;;9.00;99.90;;;;;;4989466;28;20054;-92
2023/12/11 09:34:17;;;;;;;19.10;1.83;;;9.00;99.90;;;;;;4996328;28;20038;-93
2023/12/11 09:36:43;;;;;;;11.88;1.20;;;8.90;99.90;;;;;;4999892;28;20056;-94
2023/12/11 09:39:08;;;;;;;7.45;0.75;;;8.90;99.90;;;;;;5383914;23;20056;-74
2023/12/11 09:41:34;;;;;;;11.50;1.38;;;8.90;99.90;;;;;;5043729;28;20040;-73
2023/12/11 09:44:01;;;;;;;9.73;1.60;;;8.90;99.90;;;;;;5058445;28;20059;-73
2023/12/11 09:46:29;;;;;;;10.98;1.45;;;9.00;99.90;;;;;;5058988;28;20024;-72
2023/12/11 09:48:55;;;;;;;12.45;1.38;;;9.00;99.90;;;;;;5061382;28;20392;-72
2023/12/11 09:51:22;;;;;;;11.73;1.13;;;9.10;99.90;;;;;;5056077;28;20032;-74
2023/12/11 09:53:51;;;;;;;15.20;1.10;;;9.20;99.90;;;;;;5055790;28;20630;-73
2023/12/11 09:56:18;;;;;;;14.30;1.30;;;9.20;99.90;;;;;;5063806;28;20550;-72
2023/12/11 09:58:45;;;;;;;9.95;1.08;;;9.20;99.90;;;;;;5061063;28;20387;-72
2023/12/11 10:01:14;;;;;;;9.60;0.80;;;9.20;99.90;;;;;;5060344;28;20033;-73
2023/12/11 10:03:39;;;;;;;10.90;0.98;;;9.30;99.90;;;;;;5057422;28;20161;-72
2023/12/11 10:06:05;;;;;;;10.40;0.90;;;9.30;99.90;;;;;;5061405;28;20658;-72
2023/12/11 10:08:43;;;;;;;10.70;1.42;;;9.30;99.90;;;;;;5053415;28;20021;-72
2023/12/11 10:11:09;;;;;;;7.55;0.77;;;9.40;99.90;;;;;;5055951;28;20103;-72
2023/12/11 10:13:35;;;;;;;7.07;0.80;;;9.40;99.90;;;;;;5055267;28;20059;-72
2023/12/11 10:16:01;;;;;;;7.53;0.85;;;9.40;99.90;;;;;;5054495;28;20451;-72
2023/12/11 10:18:30;;;;;;;9.27;1.08;;;9.50;99.90;;;;;;5055646;28;20025;-72
2023/12/11 10:20:58;;;;;;;11.68;1.33;;;9.50;99.90;;;;;;5057436;28;20122;-73
2023/12/11 10:23:24;;;;;;;9.38;0.82;;;9.60;99.90;;;;;;5053711;28;20024;-73
2023/12/11 10:26:03;;;;;;;17.25;1.98;;;9.60;99.90;;;;;;5071299;28;20021;-73
2023/12/11 10:28:29;;;;;;;6.28;0.85;;;9.70;99.90;;;;;;5061959;28;20124;-74
2023/12/11 10:30:55;;;;;;;15.93;1.45;;;9.70;99.90;;;;;;5058082;28;20053;-74
2023/12/11 10:33:23;;;;;;;13.43;1.13;;;9.70;99.90;;;;;;5053111;28;20028;-74
2023/12/11 10:35:50;;;;;;;11.25;1.02;;;9.70;99.90;;;;;;5052365;28;20032;-73
2023/12/11 10:38:24;;;;;;;8.73;1.35;;;9.80;99.90;;;;;;5035051;28;20029;-72
2023/12/11 10:40:50;;;;;;;15.85;1.63;;;9.80;99.90;;;;;;5062803;28;20088;-74
2023/12/11 10:43:16;;;;;;;7.85;1.73;;;9.90;99.90;;;;;;5054200;28;20383;-74
2023/12/11 10:45:43;;;;;;;14.98;1.38;;;9.90;99.90;;;;;;5055712;28;20396;-73
2023/12/11 10:48:08;;;;;;;14.70;1.55;;;9.90;99.90;;;;;;5071350;28;20032;-73
2023/12/11 10:50:34;;;;;;;7.90;1.27;;;9.90;99.90;;;;;;5062994;28;20024;-74
2023/12/11 10:53:06;;;;;;;13.85;2.22;;;10.00;99.90;;;;;;5055682;28;20037;-74
2023/12/11 10:55:33;;;;;;;10.68;1.20;;;10.00;99.90;;;;;;5060377;28;20068;-73
2023/12/11 10:58:01;;;;;;;9.65;1.17;;;10.00;99.90;;;;;;5051111;28;20037;-74
2023/12/11 11:00:30;;;;;;;9.52;1.25;;;10.00;99.90;;;;;;5065255;28;20779;-73
2023/12/11 11:02:58;;;;;;;11.25;1.02;;;10.00;99.90;;;;;;5057051;28;20061;-73
2023/12/11 11:05:27;;;;;;;16.50;2.55;;;10.00;99.90;;;;;;5052064;28;20021;-72
2023/12/11 11:08:01;;;;;;;15.07;1.67;;;10.00;99.90;;;;;;5070910;28;20055;-73
2023/12/11 11:10:52;;;;;;;11.02;1.42;;;10.10;99.90;;;;;;5051716;28;20033;-73
2023/12/11 11:13:24;;;;;;;11.65;1.00;;;10.20;99.90;;;;;;5048442;28;20040;-73
2023/12/11 11:15:55;;;;;;;12.27;1.00;;;10.30;99.90;;;;;;5057261;28;20032;-73
2023/12/11 11:18:21;;;;;;;8.60;1.02;;;10.40;99.90;;;;;;5050719;28;20025;-73
2023/12/11 11:21:12;;;;;;;13.15;1.45;;;10.40;99.90;;;;;;5057745;28;20041;-73
2023/12/11 11:23:52;;;;;;;;;;;;;;;;;;;;;
2023/12/11 11:26:35;;;;;;;13.30;1.55;;;10.50;99.90;;;;;;5060265;28;20039;-74
2023/12/11 11:29:02;;;;;;;9.27;1.25;;;10.50;99.90;;;;;;5052883;28;20033;-74
2023/12/11 11:31:49;;;;;;;10.98;1.25;;;10.50;99.90;;;;;;5065317;28;20361;-73
2023/12/11 11:34:15;;;;;;;11.82;1.30;;;10.40;99.90;;;;;;5057113;28;20032;-73
2023/12/11 11:36:47;;;;;;;9.70;0.80;;;10.40;99.90;;;;;;5058835;28;20036;-73
2023/12/11 11:39:14;;;;;;;9.68;1.35;;;10.40;99.90;;;;;;5064808;28;20087;-75
2023/12/11 11:41:41;;;;;;;10.68;1.30;;;10.40;99.90;;;;;;5044436;28;20446;-73
2023/12/11 11:44:09;;;;;;;12.48;0.80;;;10.40;99.90;;;;;;5057180;28;20108;-75
2023/12/11 11:46:59;;;;;;;12.00;1.25;;;10.40;99.90;;;;;;5055268;28;20033;-74
2023/12/11 11:49:34;;;;;;;8.57;1.02;;;10.40;99.90;;;;;;5062200;28;20025;-73
2023/12/11 11:52:03;;;;;;;9.25;1.15;;;10.30;99.90;;;;;;5057131;28;20021;-73
2023/12/11 11:54:31;;;;;;;8.75;0.80;;;10.20;99.90;;;;;;5061672;28;20090;-74
2023/12/11 11:56:56;;;;;;;7.57;0.95;;;10.20;99.90;;;;;;5068211;28;20036;-74
2023/12/11 11:59:22;;;;;;;6.38;0.98;;;10.10;99.90;;;;;;5075033;28;20032;-73
2023/12/11 12:01:55;;;;;;;7.13;0.65;;;10.20;99.90;;;;;;5059399;28;20029;-74
2023/12/11 12:04:34;;;;;;;12.50;1.77;;;10.20;99.90;;;;;;5058682;28;20020;-73
2023/12/11 12:07:04;;;;;;;12.55;1.05;;;10.20;99.90;;;;;;5065093;28;20032;-74
2023/12/11 12:09:32;;;;;;;10.73;0.90;;;10.30;99.90;;;;;;5060467;28;20590;-73
2023/12/11 12:11:58;;;;;;;7.93;1.00;;;10.30;99.90;;;;;;5061688;28;20029;-73
2023/12/11 12:14:28;;;;;;;29.55;2.67;;;10.30;99.90;;;;;;5061426;28;20064;-73
2023/12/11 12:16:55;;;;;;;14.95;0.95;;;10.40;99.90;;;;;;5042077;28;20033;-74
2023/12/11 12:19:31;;;;;;;47.28;3.63;;;10.40;99.90;;;;;;5065497;28;20040;-73
2023/12/11 12:21:58;;;;;;;19.27;0.90;;;10.40;99.90;;;;;;5056842;28;20052;-73
2023/12/11 12:24:24;;;;;;;10.77;1.10;;;10.40;99.90;;;;;;5067985;28;20152;-73
2023/12/11 12:27:09;;;;;;;10.38;1.30;;;10.50;99.90;;;;;;5059889;28;20037;-74
2023/12/11 12:29:36;;;;;;;11.20;1.13;;;10.60;99.90;;;;;;5060604;28;20031;-74
2023/12/11 12:32:02;;;;;;;15.00;1.67;;;10.60;99.90;;;;;;5060020;28;20039;-73
2023/12/11 12:34:30;;;;;;;8.68;0.90;;;10.60;99.90;;;;;;5059220;28;20120;-73
2023/12/11 12:36:59;;;;;;;17.23;0.95;;;10.60;99.90;;;;;;5057098;28;20024;-73
2023/12/11 12:39:25;;;;;;;13.35;1.42;;;10.60;99.90;;;;;;5060828;28;20059;-73
2023/12/11 12:41:50;;;;;;;17.05;1.80;;;10.60;99.90;;;;;;5061574;28;20021;-73
2023/12/11 12:44:20;;;;;;;9.18;1.00;;;10.50;99.90;;;;;;5064174;28;20025;-73
2023/12/11 12:46:46;;;;;;;9.18;1.20;;;10.50;99.90;;;;;;5070341;28;20480;-74
2023/12/11 12:49:14;;;;;;;15.40;0.98;;;10.40;99.90;;;;;;5062369;28;20103;-72
2023/12/11 12:51:48;;;;;;;9.02;0.80;;;10.40;99.90;;;;;;5065548;28;20032;-73
2023/12/11 12:54:15;;;;;;;8.40;1.10;;;10.40;99.90;;;;;;5039991;28;20029;-73
2023/12/11 12:56:42;;;;;;;8.15;1.02;;;10.30;99.90;;;;;;5074152;28;20108;-73
2023/12/11 12:59:08;;;;;;;10.50;0.90;;;10.30;99.90;;;;;;5047544;28;20062;-73
2023/12/11 13:01:39;;;;;;;8.63;1.10;;;10.20;99.90;;;;;;5066116;28;20082;-74
2023/12/11 13:04:06;;;;;;;8.30;1.15;;;10.10;99.90;;;;;;5064043;28;20017;-73
2023/12/11 13:06:32;;;;;;;9.40;1.10;;;10.00;99.90;;;;;;5056717;28;20047;-73
2023/12/11 13:08:58;;;;;;;7.05;0.85;;;10.00;99.90;;;;;;5057849;28;20036;-73
2023/12/11 13:11:45;;;;;;;6.05;0.88;;;9.90;99.90;;;;;;5043241;28;20084;-73